Orestes, Indiana
Current Conditions -  °F | °C
As of 8:15 AM on Tuesday 21 Oct 2014 (Local Time) from KMZZ Reporting Station
Overcast Overcast  
Wind Chill: 45°   Ceiling: 5000
Heat Index: 47°   Visibility: 10mi
Dew Point: 41°   Wind: 6mph
Humidity: 80%   Direction: 330°NNW
Pressure: 30.03"   Gusts: NA
Location:  40.27°N, 85.73°W
Report Text: KMZZ 211215Z AUTO 33005KT 10SM OVC050 09/05 A3003 RMK AO2 T00850052
Loading
Personal Weather Stations






























Interactive Weather Map
Tropical Storm Tracking
New forecast layout! Learn more

10-Day Weather Forecast

Advertisements
Track Severe Weather on mobile